createdAt,value
2019-05-29T00:00:29.099Z,14.10
2019-05-29T00:02:59.453Z,14.00
2019-05-29T00:05:29.836Z,14.10
2019-05-29T00:08:00.165Z,14.10
2019-05-29T00:10:30.584Z,14.00
2019-05-29T00:13:01.040Z,13.80
2019-05-29T00:15:31.491Z,13.90
2019-05-29T00:18:01.915Z,13.90
2019-05-29T00:20:32.306Z,13.90
2019-05-29T00:23:03.836Z,13.90
2019-05-29T00:25:35.263Z,13.90
2019-05-29T00:28:06.496Z,13.90
2019-05-29T00:30:37.065Z,13.80
2019-05-29T00:33:07.976Z,13.80
2019-05-29T00:35:38.526Z,13.80
2019-05-29T00:38:10.573Z,13.70
2019-05-29T00:40:41.271Z,13.70
2019-05-29T00:43:11.727Z,13.80
2019-05-29T00:45:42.124Z,13.70
2019-05-29T00:48:13.900Z,13.70
2019-05-29T00:50:44.512Z,13.70
2019-05-29T00:53:14.921Z,13.70
2019-05-29T00:55:45.686Z,13.60
2019-05-29T00:58:17.202Z,13.70
2019-05-29T01:00:47.876Z,13.70
2019-05-29T01:03:18.270Z,13.50
2019-05-29T01:05:48.638Z,13.50
2019-05-29T01:08:19.003Z,13.60
2019-05-29T01:10:49.526Z,13.60
2019-05-29T01:13:21.192Z,13.60
2019-05-29T01:15:52.000Z,13.50
2019-05-29T01:18:22.444Z,13.50
2019-05-29T01:20:53.298Z,13.40
2019-05-29T01:23:23.669Z,13.50
2019-05-29T01:25:54.131Z,13.40
2019-05-29T01:28:24.537Z,13.40
2019-05-29T01:30:54.915Z,13.40
2019-05-29T01:33:25.291Z,13.40
2019-05-29T01:35:55.779Z,13.40
2019-05-29T01:38:27.556Z,13.40
2019-05-29T01:40:58.321Z,13.30
2019-05-29T01:43:28.696Z,13.30
2019-05-29T01:45:59.038Z,13.20
2019-05-29T01:48:29.463Z,13.20
2019-05-29T01:50:59.875Z,13.20
2019-05-29T01:53:30.391Z,13.00
2019-05-29T01:56:00.825Z,13.10
2019-05-29T01:58:34.137Z,13.00
2019-05-29T02:01:04.554Z,13.00
2019-05-29T02:03:34.955Z,12.90
2019-05-29T02:06:05.339Z,13.00
2019-05-29T02:08:35.830Z,12.80
2019-05-29T02:11:06.406Z,12.80
2019-05-29T02:13:36.726Z,12.70
2019-05-29T02:16:07.156Z,12.70
2019-05-29T02:18:37.554Z,12.60
2019-05-29T02:21:08.143Z,12.50
2019-05-29T02:23:38.686Z,12.40
2019-05-29T02:26:09.029Z,12.50
2019-05-29T02:28:39.409Z,12.50
2019-05-29T02:31:09.792Z,12.40
2019-05-29T02:33:40.202Z,12.40
2019-05-29T02:36:10.511Z,12.30
2019-05-29T02:38:40.763Z,12.20
2019-05-29T02:41:10.993Z,12.20
2019-05-29T02:43:41.201Z,12.20
2019-05-29T02:46:11.476Z,12.10
2019-05-29T02:48:41.888Z,12.00
2019-05-29T02:51:12.423Z,12.00
2019-05-29T02:53:42.760Z,11.90
2019-05-29T02:56:12.955Z,11.80
2019-05-29T02:58:43.289Z,11.80
2019-05-29T03:01:13.638Z,11.80
2019-05-29T03:03:44.021Z,11.70
2019-05-29T03:06:14.989Z,11.70
2019-05-29T03:08:45.815Z,11.70
2019-05-29T03:11:16.510Z,11.70
2019-05-29T03:13:47.420Z,11.60
2019-05-29T03:16:23.638Z,11.60
2019-05-29T03:18:54.093Z,11.50
2019-05-29T03:21:26.207Z,11.30
2019-05-29T03:23:58.306Z,11.30
2019-05-29T03:26:30.740Z,11.20
2019-05-29T03:29:02.990Z,11.10
2019-05-29T03:31:41.843Z,11.10
2019-05-29T03:34:06.882Z,11.00
2019-05-29T03:36:43.817Z,11.10
2019-05-29T03:39:10.706Z,11.00
2019-05-29T03:41:41.789Z,10.90
2019-05-29T03:44:12.888Z,11.00
2019-05-29T03:46:45.944Z,10.90
2019-05-29T03:49:16.087Z,10.90
2019-05-29T03:51:46.838Z,10.90
2019-05-29T03:54:17.981Z,10.90
2019-05-29T03:56:48.883Z,10.90
2019-05-29T03:59:19.781Z,10.90
2019-05-29T04:01:50.479Z,10.90
2019-05-29T04:04:21.520Z,11.00
2019-05-29T04:06:52.440Z,11.00
2019-05-29T04:09:23.498Z,11.00
2019-05-29T04:11:54.461Z,11.00
2019-05-29T04:14:27.635Z,11.00
2019-05-29T04:17:00.749Z,11.10
2019-05-29T04:19:32.665Z,11.00
2019-05-29T04:22:10.045Z,11.10
2019-05-29T04:24:41.909Z,11.10
2019-05-29T04:27:14.400Z,11.20
2019-05-29T04:29:45.831Z,11.20
2019-05-29T04:32:17.125Z,11.30
2019-05-29T04:34:50.979Z,11.30
2019-05-29T04:37:22.386Z,11.40
2019-05-29T04:39:58.734Z,11.30
2019-05-29T04:42:31.518Z,11.50
2019-05-29T04:45:02.548Z,11.60
2019-05-29T04:47:35.103Z,11.70
2019-05-29T04:50:06.357Z,11.70
2019-05-29T04:52:38.323Z,11.90
2019-05-29T04:55:10.117Z,11.90
2019-05-29T04:57:41.120Z,12.20
2019-05-29T05:00:12.967Z,12.30
2019-05-29T05:02:43.631Z,12.30
2019-05-29T05:05:14.961Z,12.50
2019-05-29T05:07:46.254Z,12.60
2019-05-29T05:10:29.434Z,12.90
2019-05-29T05:13:02.061Z,13.10
2019-05-29T05:15:35.842Z,12.90
2019-05-29T05:18:07.741Z,12.90
2019-05-29T05:20:38.547Z,13.10
2019-05-29T05:23:09.395Z,13.50
2019-05-29T05:25:41.047Z,14.00
2019-05-29T05:28:12.913Z,14.20
2019-05-29T05:30:43.926Z,14.50
2019-05-29T05:33:14.749Z,14.70
2019-05-29T05:35:45.774Z,14.40
2019-05-29T05:38:18.961Z,15.00
2019-05-29T05:40:50.014Z,15.50
2019-05-29T05:43:24.006Z,15.90
2019-05-29T05:45:54.864Z,16.30
2019-05-29T05:48:25.522Z,16.40
2019-05-29T05:50:56.287Z,16.40
2019-05-29T05:53:26.975Z,16.40
2019-05-29T05:55:57.699Z,16.50
2019-05-29T05:58:31.564Z,16.70
2019-05-29T06:01:02.532Z,16.70
2019-05-29T06:03:33.939Z,17.00
2019-05-29T06:06:04.804Z,17.20
2019-05-29T06:08:36.141Z,17.50
2019-05-29T06:11:07.134Z,17.50
2019-05-29T06:13:38.365Z,17.80
2019-05-29T06:16:09.407Z,17.90
2019-05-29T06:18:40.635Z,18.20
2019-05-29T06:21:11.768Z,18.20
2019-05-29T06:23:43.438Z,18.60
2019-05-29T06:26:14.624Z,18.80
2019-05-29T06:28:45.703Z,19.20
2019-05-29T06:31:17.443Z,19.10
2019-05-29T06:33:48.209Z,19.10
2019-05-29T06:36:19.229Z,19.40
2019-05-29T06:38:50.454Z,19.60
2019-05-29T06:41:21.541Z,19.50
2019-05-29T06:43:52.646Z,19.70
2019-05-29T06:46:23.853Z,19.90
2019-05-29T06:49:00.274Z,19.90
2019-05-29T06:51:27.262Z,19.50
2019-05-29T06:53:58.435Z,19.20
2019-05-29T06:56:29.378Z,18.80
2019-05-29T06:59:00.602Z,18.90
2019-05-29T07:01:31.479Z,19.00
2019-05-29T07:04:11.957Z,19.00
2019-05-29T07:06:34.453Z,19.10
2019-05-29T07:09:10.656Z,19.10
2019-05-29T07:11:41.500Z,18.90
2019-05-29T07:14:12.145Z,18.50
2019-05-29T07:16:51.609Z,18.10
2019-05-29T07:19:34.168Z,18.00
2019-05-29T07:21:49.768Z,18.10
2019-05-29T07:24:21.587Z,18.30
2019-05-29T07:26:52.949Z,18.30
2019-05-29T07:29:24.348Z,18.10
2019-05-29T07:31:55.263Z,17.80
2019-05-29T07:34:28.536Z,17.80
2019-05-29T07:37:00.845Z,17.80
2019-05-29T07:39:33.978Z,17.60
2019-05-29T07:42:04.801Z,17.80
2019-05-29T07:44:35.628Z,18.00
2019-05-29T07:47:09.842Z,17.90
2019-05-29T07:49:42.736Z,17.90
2019-05-29T07:52:11.989Z,17.70
2019-05-29T07:54:43.783Z,18.00
2019-05-29T07:57:17.026Z,18.20
2019-05-29T07:59:48.863Z,18.30
2019-05-29T08:02:19.745Z,17.90
2019-05-29T08:04:50.577Z,17.90
2019-05-29T08:07:21.192Z,18.00
2019-05-29T08:09:52.110Z,17.80
2019-05-29T08:12:23.383Z,17.80
2019-05-29T08:14:54.469Z,17.80
2019-05-29T08:17:25.129Z,17.90
2019-05-29T08:20:05.618Z,18.30
2019-05-29T08:22:34.414Z,18.20
2019-05-29T08:25:05.206Z,18.30
2019-05-29T08:27:36.211Z,18.70
2019-05-29T08:30:07.762Z,18.70
2019-05-29T08:32:38.488Z,18.70
2019-05-29T08:35:09.285Z,19.00
2019-05-29T08:37:40.794Z,19.00
2019-05-29T08:40:12.654Z,18.40
2019-05-29T08:42:43.514Z,18.50
2019-05-29T08:45:14.586Z,18.80
2019-05-29T08:47:45.644Z,18.70
2019-05-29T08:50:18.912Z,18.80
2019-05-29T08:52:50.107Z,18.90
2019-05-29T08:55:21.013Z,18.90
2019-05-29T08:57:52.527Z,18.80
2019-05-29T09:00:23.710Z,18.70
2019-05-29T09:02:56.139Z,18.60
2019-05-29T09:05:29.335Z,18.70
2019-05-29T09:08:00.043Z,18.60
2019-05-29T09:10:30.651Z,18.50
2019-05-29T09:13:04.695Z,18.40
2019-05-29T09:15:37.021Z,18.30
2019-05-29T09:18:07.757Z,18.50
2019-05-29T09:21:00.864Z,18.70
2019-05-29T09:23:18.906Z,18.80
2019-05-29T09:25:50.049Z,19.10
2019-05-29T09:28:20.496Z,19.10
2019-05-29T09:30:51.329Z,19.20
2019-05-29T09:33:23.031Z,19.50
2019-05-29T09:35:54.331Z,19.40
2019-05-29T09:38:25.280Z,19.20
2019-05-29T09:40:55.782Z,19.30
2019-05-29T09:43:30.479Z,19.40
2019-05-29T09:46:02.209Z,19.80
2019-05-29T09:48:31.859Z,19.80
2019-05-29T09:51:20.269Z,19.80
2019-05-29T09:53:34.857Z,19.70
2019-05-29T09:56:05.772Z,19.50
2019-05-29T09:58:36.430Z,19.40
2019-05-29T10:01:22.264Z,19.10
2019-05-29T10:03:41.104Z,19.40
2019-05-29T10:06:11.861Z,19.40
2019-05-29T10:08:44.888Z,19.50
2019-05-29T10:11:15.515Z,19.20
2019-05-29T10:13:46.322Z,19.10
2019-05-29T10:16:17.107Z,19.30
2019-05-29T10:18:47.951Z,19.50
2019-05-29T10:21:18.416Z,19.30
2019-05-29T10:23:49.371Z,19.20
2019-05-29T10:26:20.145Z,19.30
2019-05-29T10:29:05.472Z,19.50
2019-05-29T10:31:23.100Z,19.70
2019-05-29T10:33:54.345Z,19.80
2019-05-29T10:36:25.844Z,19.80
2019-05-29T10:38:56.932Z,19.80
2019-05-29T10:41:27.571Z,19.70
2019-05-29T10:43:58.797Z,19.60
2019-05-29T10:46:29.570Z,19.80
2019-05-29T10:49:04.428Z,19.60
2019-05-29T10:51:33.549Z,19.40
2019-05-29T10:54:04.710Z,19.40
2019-05-29T10:56:35.485Z,19.50
2019-05-29T10:59:07.224Z,19.90
2019-05-29T11:01:38.130Z,19.60
2019-05-29T11:04:08.902Z,19.70
2019-05-29T11:06:41.047Z,19.80
2019-05-29T11:09:12.455Z,19.80
2019-05-29T11:11:43.079Z,20.10
2019-05-29T11:14:13.763Z,20.00
2019-05-29T11:16:44.254Z,20.10
2019-05-29T11:19:15.257Z,19.60
2019-05-29T11:21:49.698Z,20.00
2019-05-29T11:24:21.094Z,20.10
2019-05-29T11:26:52.557Z,20.10
2019-05-29T11:29:24.007Z,20.00
2019-05-29T11:31:55.304Z,20.10
2019-05-29T11:34:25.874Z,20.30
2019-05-29T11:36:56.849Z,20.40
2019-05-29T11:39:27.592Z,20.50
2019-05-29T11:41:58.938Z,20.10
2019-05-29T11:44:33.509Z,20.20
2019-05-29T11:47:06.694Z,20.00
2019-05-29T11:49:37.426Z,19.90
2019-05-29T11:52:23.354Z,20.10
2019-05-29T11:54:40.433Z,20.40
2019-05-29T11:57:11.341Z,20.50
2019-05-29T11:59:42.008Z,20.30
2019-05-29T12:02:13.391Z,20.10
2019-05-29T12:04:44.324Z,20.60
2019-05-29T12:07:15.254Z,20.70
2019-05-29T12:09:46.174Z,20.70
2019-05-29T12:12:17.631Z,20.80
2019-05-29T12:15:00.233Z,20.70
2019-05-29T12:17:21.230Z,21.00
2019-05-29T12:19:52.090Z,21.20
2019-05-29T12:22:23.007Z,21.20
2019-05-29T12:24:54.468Z,21.10
2019-05-29T12:27:25.215Z,21.20
2019-05-29T12:29:56.667Z,20.90
2019-05-29T12:32:29.825Z,21.10
2019-05-29T12:35:01.136Z,21.30
2019-05-29T12:37:31.938Z,21.50
2019-05-29T12:40:03.795Z,21.60
2019-05-29T12:42:34.441Z,21.60
2019-05-29T12:45:06.259Z,21.40
2019-05-29T12:47:37.005Z,20.80
2019-05-29T12:50:09.734Z,20.80
2019-05-29T12:52:40.596Z,20.60
2019-05-29T12:55:13.669Z,20.60
2019-05-29T12:57:44.461Z,20.80
2019-05-29T13:00:16.970Z,21.00
2019-05-29T13:02:47.702Z,21.10
2019-05-29T13:05:20.945Z,21.00
2019-05-29T13:07:51.937Z,21.20
2019-05-29T13:10:30.437Z,20.90
2019-05-29T13:13:01.324Z,21.00
2019-05-29T13:15:29.419Z,21.30
2019-05-29T13:18:05.747Z,21.40
2019-05-29T13:20:32.837Z,20.80
2019-05-29T13:23:07.386Z,21.10
2019-05-29T13:25:38.162Z,20.90
2019-05-29T13:28:09.393Z,21.10
2019-05-29T13:30:40.347Z,21.10
2019-05-29T13:33:11.198Z,21.00
2019-05-29T13:35:46.128Z,21.30
2019-05-29T13:38:17.192Z,21.40
2019-05-29T13:40:50.627Z,21.20
2019-05-29T13:43:22.349Z,21.30
2019-05-29T13:45:53.112Z,21.30
2019-05-29T13:48:23.841Z,21.20
2019-05-29T13:50:54.541Z,21.20
2019-05-29T13:53:25.511Z,21.30
2019-05-29T13:55:57.617Z,21.20
2019-05-29T13:58:28.425Z,21.30
2019-05-29T14:01:00.747Z,21.10
2019-05-29T14:03:31.917Z,20.80
2019-05-29T14:06:03.223Z,20.60
2019-05-29T14:08:35.045Z,20.80
2019-05-29T14:11:07.139Z,21.00
2019-05-29T14:13:38.111Z,21.20
2019-05-29T14:16:08.690Z,21.10
2019-05-29T14:18:39.515Z,21.00
2019-05-29T14:21:10.538Z,21.10
2019-05-29T14:23:41.458Z,21.00
2019-05-29T14:26:13.090Z,21.10
2019-05-29T14:28:43.888Z,21.30
2019-05-29T14:31:14.671Z,21.20
2019-05-29T14:33:45.366Z,21.10
2019-05-29T14:36:15.993Z,21.20
2019-05-29T14:38:46.910Z,21.10
2019-05-29T14:41:18.434Z,21.30
2019-05-29T14:43:51.413Z,21.50
2019-05-29T14:46:22.131Z,21.70
2019-05-29T14:48:52.754Z,21.70
2019-05-29T14:51:23.181Z,21.80
2019-05-29T14:53:53.811Z,21.90
2019-05-29T14:56:27.808Z,21.90
2019-05-29T14:58:58.699Z,21.80
2019-05-29T15:01:29.485Z,21.80
2019-05-29T15:04:00.201Z,21.70
2019-05-29T15:06:31.914Z,21.70
2019-05-29T15:09:03.608Z,21.80
2019-05-29T15:11:34.440Z,21.60
2019-05-29T15:14:06.141Z,21.70
2019-05-29T15:16:39.906Z,21.70
2019-05-29T15:19:11.025Z,21.70
2019-05-29T15:21:41.832Z,21.80
2019-05-29T15:24:13.656Z,22.00
2019-05-29T15:26:44.586Z,22.10
2019-05-29T15:29:17.910Z,22.20
2019-05-29T15:31:47.690Z,22.10
2019-05-29T15:34:19.674Z,22.00
2019-05-29T15:36:50.317Z,22.00
2019-05-29T15:39:20.930Z,22.00
2019-05-29T15:41:51.846Z,21.90
2019-05-29T15:44:22.754Z,21.90
2019-05-29T15:46:53.328Z,21.90
2019-05-29T15:49:24.252Z,21.90
2019-05-29T15:51:54.872Z,22.00
2019-05-29T15:54:25.404Z,22.10
2019-05-29T15:56:56.154Z,22.10
2019-05-29T15:59:26.938Z,22.30
2019-05-29T16:01:57.884Z,22.50
2019-05-29T16:04:28.395Z,22.30
2019-05-29T16:06:59.186Z,22.20
2019-05-29T16:09:29.888Z,21.40
2019-05-29T16:12:04.245Z,21.60
2019-05-29T16:14:35.456Z,21.60
2019-05-29T16:17:06.293Z,21.30
2019-05-29T16:19:37.208Z,21.00
2019-05-29T16:22:08.061Z,21.00
2019-05-29T16:24:38.920Z,21.00
2019-05-29T16:27:10.600Z,21.10
2019-05-29T16:29:41.322Z,21.40
2019-05-29T16:32:12.131Z,21.70
2019-05-29T16:34:43.676Z,21.80
2019-05-29T16:37:15.192Z,21.80
2019-05-29T16:39:46.347Z,21.90
2019-05-29T16:42:18.061Z,22.00
2019-05-29T16:44:48.982Z,22.00
2019-05-29T16:47:20.497Z,22.00
2019-05-29T16:49:51.334Z,22.00
2019-05-29T16:52:22.915Z,21.60
2019-05-29T16:54:53.982Z,21.40
2019-05-29T16:57:24.679Z,21.60
2019-05-29T16:59:58.803Z,21.70
2019-05-29T17:02:31.018Z,21.40
2019-05-29T17:05:01.877Z,21.70
2019-05-29T17:07:32.802Z,21.60
2019-05-29T17:10:03.809Z,21.60
2019-05-29T17:12:37.650Z,21.80
2019-05-29T17:15:09.859Z,21.80
2019-05-29T17:17:40.993Z,21.80
2019-05-29T17:20:14.673Z,21.60
2019-05-29T17:22:45.624Z,21.30
2019-05-29T17:25:16.835Z,21.40
2019-05-29T17:27:47.709Z,21.40
2019-05-29T17:30:21.204Z,21.50
2019-05-29T17:32:52.490Z,21.30
2019-05-29T17:35:25.191Z,21.30
2019-05-29T17:37:58.098Z,21.30
2019-05-29T17:40:28.793Z,21.30
2019-05-29T17:42:59.657Z,21.40
2019-05-29T17:45:30.807Z,21.30
2019-05-29T17:48:01.510Z,21.40
2019-05-29T17:50:33.459Z,21.30
2019-05-29T17:53:04.396Z,21.30
2019-05-29T17:55:35.053Z,21.20
2019-05-29T17:58:06.490Z,21.00
2019-05-29T18:00:37.699Z,20.80
2019-05-29T18:03:08.319Z,20.70
2019-05-29T18:05:39.475Z,20.50
2019-05-29T18:08:10.555Z,20.40
2019-05-29T18:10:41.357Z,20.20
2019-05-29T18:13:12.345Z,20.00
2019-05-29T18:15:43.501Z,19.90
2019-05-29T18:18:14.495Z,19.90
2019-05-29T18:20:46.294Z,19.90
2019-05-29T18:23:21.737Z,19.90
2019-05-29T18:25:52.672Z,19.60
2019-05-29T18:28:24.121Z,19.50
2019-05-29T18:31:01.149Z,19.50
2019-05-29T18:33:32.134Z,19.60
2019-05-29T18:36:03.366Z,19.70
2019-05-29T18:38:34.366Z,19.50
2019-05-29T18:41:05.910Z,19.40
2019-05-29T18:43:37.255Z,19.30
2019-05-29T18:46:08.878Z,19.20
2019-05-29T18:48:39.668Z,19.10
2019-05-29T18:51:10.707Z,19.00
2019-05-29T18:53:41.466Z,19.00
2019-05-29T18:56:12.396Z,18.80
2019-05-29T18:58:43.806Z,18.80
2019-05-29T19:01:14.651Z,18.80
2019-05-29T19:03:45.537Z,18.90
2019-05-29T19:06:16.441Z,18.70
2019-05-29T19:08:47.053Z,18.60
2019-05-29T19:11:21.669Z,18.60
2019-05-29T19:13:58.333Z,18.60
2019-05-29T19:16:30.021Z,18.60
2019-05-29T19:19:00.962Z,18.50
2019-05-29T19:21:32.560Z,18.40
2019-05-29T19:24:03.647Z,18.30
2019-05-29T19:26:36.777Z,18.30
2019-05-29T19:29:09.355Z,18.20
2019-05-29T19:31:42.489Z,18.10
2019-05-29T19:34:12.296Z,18.00
2019-05-29T19:36:43.086Z,17.90
2019-05-29T19:39:13.682Z,17.90
2019-05-29T19:41:47.168Z,17.80
2019-05-29T19:44:18.039Z,17.80
2019-05-29T19:46:54.117Z,17.60
2019-05-29T19:49:20.679Z,17.70
2019-05-29T19:51:51.188Z,17.60
2019-05-29T19:54:21.551Z,17.50
2019-05-29T19:56:52.977Z,17.40
2019-05-29T19:59:24.109Z,17.30
2019-05-29T20:01:55.634Z,17.40
2019-05-29T20:04:26.631Z,17.30
2019-05-29T20:06:57.053Z,17.20
2019-05-29T20:09:27.422Z,17.00
2019-05-29T20:11:59.228Z,16.90
2019-05-29T20:14:29.619Z,16.80
2019-05-29T20:17:00.010Z,16.80
2019-05-29T20:19:33.989Z,16.80
2019-05-29T20:22:02.456Z,16.80
2019-05-29T20:24:32.914Z,16.90
2019-05-29T20:27:03.356Z,16.90
2019-05-29T20:29:36.410Z,17.00
2019-05-29T20:32:06.932Z,16.80
2019-05-29T20:34:38.882Z,16.70
2019-05-29T20:37:09.605Z,16.60
2019-05-29T20:39:40.034Z,16.40
2019-05-29T20:42:10.525Z,16.20
2019-05-29T20:44:41.128Z,16.20
2019-05-29T20:47:11.641Z,16.00
2019-05-29T20:49:42.260Z,15.90
2019-05-29T20:52:12.732Z,15.80
2019-05-29T20:54:43.144Z,15.60
2019-05-29T20:57:13.983Z,15.60
2019-05-29T20:59:44.372Z,15.50
2019-05-29T21:02:14.797Z,15.50
2019-05-29T21:04:45.200Z,15.40
2019-05-29T21:07:15.656Z,15.50
2019-05-29T21:09:46.130Z,15.70
2019-05-29T21:12:16.617Z,15.60
2019-05-29T21:14:47.501Z,15.40
2019-05-29T21:17:18.643Z,15.30
2019-05-29T21:19:51.331Z,15.30
2019-05-29T21:22:21.960Z,15.30
2019-05-29T21:25:01.873Z,15.10
2019-05-29T21:27:24.425Z,14.90
2019-05-29T21:29:55.499Z,15.00
2019-05-29T21:32:27.268Z,15.00
2019-05-29T21:34:57.654Z,14.90
2019-05-29T21:37:27.980Z,14.90
2019-05-29T21:39:58.674Z,14.90
2019-05-29T21:42:29.011Z,14.80
2019-05-29T21:45:01.015Z,14.90
2019-05-29T21:47:31.630Z,15.00
2019-05-29T21:50:02.262Z,14.90
2019-05-29T21:52:32.785Z,14.80
2019-05-29T21:55:03.381Z,14.80
2019-05-29T21:57:33.906Z,14.80
2019-05-29T22:00:05.977Z,14.70
2019-05-29T22:02:36.388Z,14.50
2019-05-29T22:05:07.069Z,14.60
2019-05-29T22:07:38.595Z,14.50
2019-05-29T22:10:10.740Z,14.40
2019-05-29T22:12:41.236Z,14.20
2019-05-29T22:15:12.514Z,14.20
2019-05-29T22:17:43.065Z,14.20
2019-05-29T22:20:13.842Z,14.10
2019-05-29T22:22:44.228Z,14.00
2019-05-29T22:25:15.028Z,14.00
2019-05-29T22:27:45.415Z,14.10
2019-05-29T22:30:15.951Z,13.90
2019-05-29T22:32:46.528Z,13.80
2019-05-29T22:35:16.943Z,13.60
2019-05-29T22:37:47.362Z,13.50
2019-05-29T22:40:18.332Z,13.50
2019-05-29T22:42:48.752Z,13.70
2019-05-29T22:45:19.732Z,13.50
2019-05-29T22:47:51.523Z,13.50
2019-05-29T22:50:22.575Z,13.50
2019-05-29T22:52:53.821Z,13.50
2019-05-29T22:55:24.748Z,13.60
2019-05-29T22:57:55.922Z,13.40
2019-05-29T23:00:26.461Z,13.30
2019-05-29T23:02:58.103Z,13.30
2019-05-29T23:05:28.932Z,13.20
2019-05-29T23:08:00.331Z,13.20
2019-05-29T23:10:30.861Z,13.30
2019-05-29T23:13:04.359Z,13.30
2019-05-29T23:15:33.808Z,13.20
2019-05-29T23:18:04.813Z,13.20
2019-05-29T23:20:38.948Z,13.20
2019-05-29T23:23:09.345Z,13.20
2019-05-29T23:25:39.857Z,13.20
2019-05-29T23:28:10.292Z,13.10
2019-05-29T23:30:40.725Z,13.10
2019-05-29T23:33:11.206Z,13.10
2019-05-29T23:35:41.779Z,13.00
2019-05-29T23:38:12.080Z,13.00
2019-05-29T23:40:55.134Z,13.00
2019-05-29T23:43:25.678Z,13.00
2019-05-29T23:45:57.305Z,13.00
2019-05-29T23:48:27.740Z,13.00
2019-05-29T23:50:59.518Z,12.90
2019-05-29T23:53:30.428Z,12.90
2019-05-29T23:56:01.866Z,12.90
2019-05-29T23:58:32.563Z,12.80
